createdAt,value
2023-11-24T00:02:56.825Z,99823.22
2023-11-24T00:07:58.424Z,99851.56
2023-11-24T00:13:03.080Z,99824.97
2023-11-24T00:18:04.538Z,99817.16
2023-11-24T00:23:05.929Z,99829.88
2023-11-24T00:28:07.377Z,99819.94
2023-11-24T00:33:08.896Z,99798.69
2023-11-24T00:38:10.303Z,99797.97
2023-11-24T00:43:11.799Z,99793.66
2023-11-24T00:48:13.280Z,99774.84
2023-11-24T00:53:14.729Z,99797.63
2023-11-24T00:58:16.164Z,99795.38
2023-11-24T01:03:17.540Z,99787.59
2023-11-24T01:08:18.917Z,99784.13
2023-11-24T01:13:20.271Z,99786.00
2023-11-24T01:18:22.423Z,99797.31
2023-11-24T01:23:24.231Z,99792.78
2023-11-24T01:28:26.638Z,99810.00
2023-11-24T01:33:28.144Z,99802.69
2023-11-24T01:38:29.596Z,99820.97
2023-11-24T01:43:31.000Z,99889.47
2023-11-24T01:48:32.657Z,99879.19
2023-11-24T01:53:34.913Z,99875.63
2023-11-24T01:58:36.328Z,99893.72
2023-11-24T02:03:37.805Z,99890.88
2023-11-24T02:08:39.908Z,99883.72
2023-11-24T02:13:41.290Z,99889.88
2023-11-24T02:18:42.981Z,99884.75
2023-11-24T02:23:44.566Z,99877.75
2023-11-24T02:28:46.049Z,99870.25
2023-11-24T02:33:51.074Z,99873.25
2023-11-24T02:38:53.054Z,99862.28
2023-11-24T02:43:54.453Z,99885.22
2023-11-24T02:48:55.950Z,99877.00
2023-11-24T02:53:57.588Z,99889.03
2023-11-24T02:58:59.018Z,99889.28
2023-11-24T03:04:00.530Z,99873.19
2023-11-24T03:09:07.183Z,99875.88
2023-11-24T03:14:08.592Z,99869.66
2023-11-24T03:19:10.464Z,99863.81
2023-11-24T03:24:11.885Z,99889.22
2023-11-24T03:29:13.297Z,99913.69
2023-11-24T03:34:14.803Z,99911.50
2023-11-24T03:39:16.491Z,99883.13
2023-11-24T03:44:17.919Z,99868.81
2023-11-24T03:49:19.412Z,99861.91
2023-11-24T03:54:22.986Z,99869.25
2023-11-24T03:59:24.409Z,99867.59
2023-11-24T04:04:25.929Z,99868.59
2023-11-24T04:09:27.394Z,99886.06
2023-11-24T04:14:28.784Z,99888.94
2023-11-24T04:19:30.160Z,99893.88
2023-11-24T04:24:31.562Z,99883.88
2023-11-24T04:29:32.926Z,99887.78
2023-11-24T04:34:34.424Z,99879.41
2023-11-24T04:39:36.168Z,99884.59
2023-11-24T04:44:37.764Z,99891.13
2023-11-24T04:49:39.233Z,99872.16
2023-11-24T04:54:40.813Z,99884.06
2023-11-24T04:59:42.219Z,99887.94
2023-11-24T05:04:43.672Z,99875.59
2023-11-24T05:09:46.568Z,99875.41
2023-11-24T05:14:48.014Z,99869.69
2023-11-24T05:19:49.405Z,99862.59
2023-11-24T05:24:50.869Z,99858.03
2023-11-24T05:29:52.308Z,99842.84
2023-11-24T05:34:54.819Z,99844.31
2023-11-24T05:39:56.352Z,99836.13
2023-11-24T05:44:57.850Z,99833.28
2023-11-24T05:49:59.296Z,99828.19
2023-11-24T05:55:05.053Z,99801.88
2023-11-24T06:00:09.713Z,99793.28
2023-11-24T06:05:11.900Z,99778.16
2023-11-24T06:10:13.499Z,99781.03
2023-11-24T06:15:15.154Z,99781.03
2023-11-24T06:20:19.318Z,99765.59
2023-11-24T06:25:20.763Z,99778.81
2023-11-24T06:30:22.400Z,99768.09
2023-11-24T06:35:23.936Z,99766.31
2023-11-24T06:40:25.635Z,99758.94
2023-11-24T06:45:27.028Z,99755.00
2023-11-24T06:50:29.225Z,99745.78
2023-11-24T06:55:31.812Z,99761.56
2023-11-24T07:00:33.957Z,99754.03
2023-11-24T07:05:36.796Z,99751.59
2023-11-24T07:10:38.621Z,99760.19
2023-11-24T07:15:40.218Z,99761.63
2023-11-24T07:20:41.708Z,99762.22
2023-11-24T07:25:44.258Z,99770.19
2023-11-24T07:30:47.237Z,99761.91
2023-11-24T07:35:48.764Z,99748.78
2023-11-24T07:40:50.140Z,99753.44
2023-11-24T07:45:53.252Z,99738.28
2023-11-24T07:50:54.837Z,99750.50
2023-11-24T07:55:56.337Z,99748.19
2023-11-24T08:00:57.823Z,99736.06
2023-11-24T08:06:07.437Z,99754.16
2023-11-24T08:11:10.021Z,99735.47
2023-11-24T08:16:12.814Z,99724.06
2023-11-24T08:21:14.581Z,99717.00
2023-11-24T08:26:18.539Z,99691.66
2023-11-24T08:31:21.505Z,99688.19
2023-11-24T08:36:26.493Z,99692.78
2023-11-24T08:41:35.434Z,99680.69
2023-11-24T08:46:43.541Z,99672.13
2023-11-24T08:51:45.132Z,99677.22
2023-11-24T08:56:46.502Z,99674.38
2023-11-24T09:01:51.133Z,99660.22
2023-11-24T09:06:52.662Z,99652.09
2023-11-24T09:11:54.078Z,99632.41
2023-11-24T09:16:57.601Z,99631.16
2023-11-24T09:22:04.623Z,99640.63
2023-11-24T09:27:06.181Z,99634.84
2023-11-24T09:32:08.014Z,99632.41
2023-11-24T09:37:10.669Z,99620.59
2023-11-24T09:42:18.313Z,99621.72
2023-11-24T09:47:21.491Z,99620.47
2023-11-24T09:52:25.156Z,99623.19
2023-11-24T09:57:26.750Z,99620.59
2023-11-24T10:02:29.002Z,99635.22
2023-11-24T10:07:30.627Z,99609.63
2023-11-24T10:12:32.164Z,99601.97
2023-11-24T10:17:35.243Z,99604.47
2023-11-24T10:22:36.925Z,99595.63
2023-11-24T10:27:41.382Z,99586.47
2023-11-24T10:32:44.764Z,99556.88
2023-11-24T10:37:46.506Z,99545.53
2023-11-24T10:42:49.792Z,99549.31
2023-11-24T10:48:16.064Z,99548.19
2023-11-24T10:53:35.699Z,99544.34
2023-11-24T10:58:37.529Z,99532.31
2023-11-24T11:03:39.973Z,99516.41
2023-11-24T11:08:57.280Z,99544.81
2023-11-24T11:13:59.979Z,99525.09
2023-11-24T11:19:33.955Z,99522.00
2023-11-24T11:24:35.516Z,99495.94
2023-11-24T11:29:37.340Z,99503.44
2023-11-24T11:34:38.754Z,99482.06
2023-11-24T11:39:55.458Z,99466.53
2023-11-24T11:44:59.935Z,99469.47
2023-11-24T11:50:06.323Z,99457.50
2023-11-24T11:55:08.069Z,99448.53
2023-11-24T12:00:10.773Z,99437.69
2023-11-24T12:05:15.902Z,99439.28
2023-11-24T12:10:17.299Z,99412.75
2023-11-24T12:15:19.066Z,99394.66
2023-11-24T12:20:20.965Z,99400.34
2023-11-24T12:25:22.868Z,99401.03
2023-11-24T12:30:24.428Z,99411.66
2023-11-24T12:35:28.664Z,99399.72
2023-11-24T12:40:33.714Z,99415.63
2023-11-24T12:45:36.709Z,99408.78
2023-11-24T12:50:42.031Z,99411.53
2023-11-24T12:55:43.483Z,99404.34
2023-11-24T13:00:45.230Z,99385.16
2023-11-24T13:05:47.236Z,99378.44
2023-11-24T13:10:49.752Z,99371.69
2023-11-24T13:15:52.260Z,99372.63
2023-11-24T13:20:53.720Z,99367.97
2023-11-24T13:25:55.102Z,99360.69
2023-11-24T13:30:56.924Z,99358.75
2023-11-24T13:35:58.666Z,99352.91
2023-11-24T13:41:00.057Z,99337.97
2023-11-24T13:46:03.228Z,99352.75
2023-11-24T13:51:07.695Z,99371.22
2023-11-24T13:56:09.620Z,99399.44
2023-11-24T14:01:11.351Z,99420.53
2023-11-24T14:06:14.604Z,99424.66
2023-11-24T14:11:16.700Z,99407.03
2023-11-24T14:16:18.144Z,99395.13
2023-11-24T14:21:20.375Z,99411.41
2023-11-24T14:26:21.764Z,99405.03
2023-11-24T14:31:23.501Z,99390.72
2023-11-24T14:36:25.039Z,99399.22
2023-11-24T14:41:26.980Z,99401.06
2023-11-24T14:46:32.353Z,99381.56
2023-11-24T14:51:37.082Z,99382.22
2023-11-24T14:56:41.031Z,99383.56
2023-11-24T15:01:44.011Z,99406.06
2023-11-24T15:06:50.749Z,99407.56
2023-11-24T15:11:53.664Z,99384.91
2023-11-24T15:16:58.951Z,99394.75
2023-11-24T15:22:21.347Z,99396.88
2023-11-24T15:27:22.827Z,99408.56
2023-11-24T15:32:24.916Z,99412.38
2023-11-24T15:37:26.901Z,99397.06
2023-11-24T15:42:30.336Z,99408.38
2023-11-24T15:47:31.939Z,99409.88
2023-11-24T15:52:34.856Z,99404.91
2023-11-24T15:57:36.254Z,99399.88
2023-11-24T16:02:38.813Z,99411.88
2023-11-24T16:07:40.267Z,99424.91
2023-11-24T16:12:45.784Z,99453.72
2023-11-24T16:17:48.512Z,99470.06
2023-11-24T16:22:50.305Z,99494.56
2023-11-24T16:27:51.735Z,99495.22
2023-11-24T16:32:53.148Z,99442.44
2023-11-24T16:37:54.731Z,99437.88
2023-11-24T16:42:56.184Z,99432.28
2023-11-24T16:47:57.687Z,99441.91
2023-11-24T16:52:59.108Z,99446.69
2023-11-24T16:58:00.531Z,99434.56
2023-11-24T17:03:01.970Z,99438.06
2023-11-24T17:08:07.880Z,99420.75
2023-11-24T17:13:09.674Z,99429.22
2023-11-24T17:18:11.118Z,99437.13
2023-11-24T17:23:17.157Z,99437.66
2023-11-24T17:28:18.675Z,99433.38
2023-11-24T17:33:20.162Z,99439.41
2023-11-24T17:38:22.372Z,99439.66
2023-11-24T17:43:23.819Z,99426.38
2023-11-24T17:48:25.268Z,99426.25
2023-11-24T17:53:26.709Z,99418.81
2023-11-24T17:58:28.387Z,99417.81
2023-11-24T18:03:30.156Z,99427.81
2023-11-24T18:08:34.820Z,99415.50
2023-11-24T18:13:36.559Z,99415.81
2023-11-24T18:18:41.053Z,99408.84
2023-11-24T18:23:43.404Z,99410.69
2023-11-24T18:28:47.869Z,99402.19
2023-11-24T18:33:49.261Z,99398.88
2023-11-24T18:38:50.646Z,99399.53
2023-11-24T18:43:52.424Z,99391.38
2023-11-24T18:48:53.990Z,99389.34
2023-11-24T18:53:56.608Z,99390.84
2023-11-24T18:58:58.015Z,99398.16
2023-11-24T19:03:59.516Z,99406.81
2023-11-24T19:09:01.066Z,99386.00
2023-11-24T19:14:02.843Z,99393.31
2023-11-24T19:19:04.290Z,99378.69
2023-11-24T19:24:06.726Z,99366.91
2023-11-24T19:29:11.622Z,99344.94
2023-11-24T19:34:13.858Z,99338.94
2023-11-24T19:39:15.387Z,99340.13
2023-11-24T19:44:16.744Z,99351.59
2023-11-24T19:49:18.166Z,99348.63
2023-11-24T19:54:19.561Z,99350.09
2023-11-24T19:59:20.977Z,99363.59
2023-11-24T20:04:22.461Z,99361.41
2023-11-24T20:09:23.846Z,99355.91
2023-11-24T20:14:25.229Z,99360.59
2023-11-24T20:19:26.667Z,99354.41
2023-11-24T20:24:28.145Z,99364.91
2023-11-24T20:29:29.521Z,99354.59
2023-11-24T20:34:32.220Z,99311.66
2023-11-24T20:39:33.726Z,99327.31
2023-11-24T20:44:36.555Z,99345.13
2023-11-24T20:49:38.448Z,99352.59
2023-11-24T20:54:40.405Z,99328.47
2023-11-24T20:59:41.986Z,99340.13
2023-11-24T21:04:43.466Z,99343.44
2023-11-24T21:09:44.909Z,99351.94
2023-11-24T21:14:46.925Z,99357.63
2023-11-24T21:19:48.290Z,99361.94
2023-11-24T21:24:52.533Z,99353.44
2023-11-24T21:29:53.961Z,99354.09
2023-11-24T21:34:55.451Z,99356.94
2023-11-24T21:40:01.649Z,99379.91
2023-11-24T21:45:04.232Z,99394.72
2023-11-24T21:50:07.308Z,99402.91
2023-11-24T21:55:10.176Z,99391.91
2023-11-24T22:00:17.500Z,99396.56
2023-11-24T22:05:19.052Z,99402.91
2023-11-24T22:10:20.600Z,99409.88
2023-11-24T22:15:22.028Z,99412.75
2023-11-24T22:20:23.410Z,99405.94
2023-11-24T22:25:24.990Z,99410.41
2023-11-24T22:30:26.588Z,99424.75
2023-11-24T22:35:28.410Z,99432.03
2023-11-24T22:40:29.974Z,99444.69
2023-11-24T22:45:33.123Z,99454.81
2023-11-24T22:50:34.812Z,99490.63
2023-11-24T22:55:36.900Z,99493.56
2023-11-24T23:00:41.536Z,99511.34
2023-11-24T23:05:47.381Z,99504.00
2023-11-24T23:10:49.186Z,99514.66
2023-11-24T23:15:51.703Z,99526.28
2023-11-24T23:20:53.429Z,99529.06
2023-11-24T23:25:54.959Z,99544.06
2023-11-24T23:30:56.586Z,99541.41
2023-11-24T23:36:01.011Z,99550.34
2023-11-24T23:41:02.898Z,99562.22
2023-11-24T23:46:06.402Z,99568.34
2023-11-24T23:51:08.412Z,99572.47
2023-11-24T23:56:10.644Z,99578.81
